Time;durP1;ratioP1;P1;durP2;ratioP2;P2;SDS_P1;SDS_P2;PMS_P1;PMS_P2;Temp;Humidity;BMP_temperature;BMP_pressure;BME280_temperature;BME280_humidity;BME280_pressure;Samples;Min_cycle;Max_cycle;Signal;HPM_P1;HPM_P2
2022/02/18 00:01:30;;;;;;;10.38;3.75;;;5.50;99.90;;;;;;12554644;28;20079;-83
2022/02/18 00:07:33;;;;;;;8.45;3.22;;;5.40;99.90;;;;;;12537988;28;20060;-82
2022/02/18 00:13:35;;;;;;;10.15;3.10;;;5.20;99.90;;;;;;12534675;28;20053;-81
2022/02/18 00:19:37;;;;;;;12.23;3.30;;;5.10;99.90;;;;;;12522337;28;20139;-81
2022/02/18 00:25:40;;;;;;;10.20;2.10;;;5.10;99.90;;;;;;12537021;28;20037;-83
2022/02/18 00:31:41;;;;;;;14.30;2.60;;;5.00;99.90;;;;;;12538344;28;20061;-82
2022/02/18 00:37:43;;;;;;;10.18;2.20;;;5.00;99.90;;;;;;12535574;28;20049;-82
2022/02/18 00:43:45;;;;;;;16.08;2.67;;;5.20;99.90;;;;;;12534744;28;20091;-83
2022/02/18 00:49:48;;;;;;;8.82;1.98;;;5.10;99.90;;;;;;12536030;28;20536;-81
2022/02/18 00:55:50;;;;;;;8.15;1.98;;;5.20;99.90;;;;;;12540742;28;20397;-83
2022/02/18 01:01:52;;;;;;;9.50;2.22;;;5.20;99.90;;;;;;12538749;28;20140;-82
2022/02/18 01:07:54;;;;;;;6.10;1.60;;;5.30;99.90;;;;;;12523824;28;20509;-84
2022/02/18 01:13:56;;;;;;;13.65;1.88;;;5.30;99.90;;;;;;12541080;28;20057;-82
2022/02/18 01:19:58;;;;;;;12.43;2.33;;;5.30;99.90;;;;;;12528233;28;20504;-82
2022/02/18 01:26:00;;;;;;;11.43;2.03;;;5.30;99.90;;;;;;12520192;28;20126;-82
2022/02/18 01:32:02;;;;;;;13.95;2.10;;;5.30;99.90;;;;;;12519317;28;20048;-82
2022/02/18 01:38:06;;;;;;;13.10;1.80;;;5.20;99.90;;;;;;12529381;28;20552;-81
2022/02/18 01:44:07;;;;;;;10.82;1.83;;;5.10;99.90;;;;;;12520729;28;20616;-81
2022/02/18 01:50:09;;;;;;;9.65;2.35;;;5.00;99.90;;;;;;12518021;28;20152;-82
2022/02/18 01:56:13;;;;;;;11.52;2.50;;;4.90;99.90;;;;;;12512206;28;20064;-82
2022/02/18 02:02:15;;;;;;;12.90;2.38;;;5.00;99.90;;;;;;12512988;28;20163;-81
2022/02/18 02:08:17;;;;;;;10.23;2.17;;;5.00;99.90;;;;;;12520807;28;20128;-82
2022/02/18 02:14:19;;;;;;;16.90;2.80;;;5.10;99.90;;;;;;12531785;28;20128;-82
2022/02/18 02:20:21;;;;;;;16.45;2.50;;;5.10;99.90;;;;;;12513926;28;20056;-81
2022/02/18 02:26:23;;;;;;;12.60;2.15;;;5.10;99.90;;;;;;12517293;28;20144;-81
2022/02/18 02:32:25;;;;;;;14.55;3.17;;;5.00;99.90;;;;;;12532208;28;20048;-81
2022/02/18 02:38:27;;;;;;;20.02;2.85;;;5.00;99.90;;;;;;12534941;28;20065;-83
2022/02/18 02:44:29;;;;;;;12.98;2.83;;;5.00;99.90;;;;;;12521198;28;20495;-82
2022/02/18 02:50:31;;;;;;;16.33;2.47;;;5.00;99.90;;;;;;12531652;28;20402;-82
2022/02/18 02:56:33;;;;;;;16.55;3.00;;;5.00;99.90;;;;;;12531761;28;20098;-82
2022/02/18 03:02:35;;;;;;;14.10;2.88;;;5.10;99.90;;;;;;12515214;28;20164;-83
2022/02/18 03:08:37;;;;;;;10.07;2.35;;;5.10;99.90;;;;;;12531348;28;20092;-81
2022/02/18 03:14:39;;;;;;;14.18;3.53;;;5.20;99.90;;;;;;12532699;28;20059;-81
2022/02/18 03:20:40;;;;;;;20.83;3.75;;;5.20;99.90;;;;;;12523196;28;20057;-83
2022/02/18 03:26:42;;;;;;;14.90;3.50;;;5.20;99.90;;;;;;12517032;28;20109;-83
2022/02/18 03:32:44;;;;;;;15.23;2.92;;;5.30;99.90;;;;;;12524599;28;20416;-80
2022/02/18 03:38:46;;;;;;;12.57;3.33;;;5.30;99.90;;;;;;12504064;28;20578;-82
2022/02/18 03:44:48;;;;;;;16.45;3.20;;;5.30;99.90;;;;;;12530216;28;20048;-82
2022/02/18 03:50:50;;;;;;;16.17;3.72;;;5.30;99.90;;;;;;12514347;28;20296;-81
2022/02/18 03:56:53;;;;;;;19.52;3.72;;;5.30;99.90;;;;;;12527731;28;20049;-81
2022/02/18 04:02:55;;;;;;;21.45;3.65;;;5.30;99.90;;;;;;12522539;28;20065;-82
2022/02/18 04:08:57;;;;;;;17.77;4.03;;;5.40;99.90;;;;;;12522736;28;20585;-82
2022/02/18 04:14:59;;;;;;;17.52;6.10;;;5.40;99.90;;;;;;12514303;28;20053;-82
2022/02/18 04:21:01;;;;;;;19.85;4.65;;;5.50;99.90;;;;;;12510966;28;20446;-82
2022/02/18 04:27:04;;;;;;;23.00;5.50;;;5.50;99.90;;;;;;12500559;28;20072;-80
2022/02/18 04:33:06;;;;;;;20.60;5.47;;;5.40;99.90;;;;;;12528815;28;20148;-82
2022/02/18 04:39:09;;;;;;;22.15;6.18;;;5.40;99.90;;;;;;12529354;28;20045;-81
2022/02/18 04:45:12;;;;;;;21.30;7.10;;;5.40;99.90;;;;;;12526174;28;20052;-82
2022/02/18 04:51:14;;;;;;;27.63;7.00;;;5.40;99.90;;;;;;12510117;28;20045;-80
2022/02/18 04:57:16;;;;;;;21.75;7.00;;;5.50;99.90;;;;;;12510350;28;20143;-82
2022/02/18 05:03:18;;;;;;;21.90;7.70;;;5.50;99.90;;;;;;12514206;28;20052;-81
2022/02/18 05:09:20;;;;;;;20.83;7.80;;;5.50;99.90;;;;;;12518302;28;20053;-81
2022/02/18 05:15:22;;;;;;;26.27;8.55;;;5.50;99.90;;;;;;12534279;28;20095;-81
2022/02/18 05:21:24;;;;;;;25.98;8.20;;;5.60;99.90;;;;;;12530512;28;20088;-80
2022/02/18 05:27:26;;;;;;;29.27;9.10;;;5.50;99.90;;;;;;12522142;28;20040;-81
2022/02/18 05:33:28;;;;;;;27.80;9.20;;;5.50;99.90;;;;;;12519213;28;20128;-80
2022/02/18 05:39:30;;;;;;;24.33;8.88;;;5.50;99.90;;;;;;12536859;28;20102;-81
2022/02/18 05:45:32;;;;;;;28.45;9.20;;;5.50;99.90;;;;;;12520196;28;20537;-82
2022/02/18 05:51:36;;;;;;;30.35;9.88;;;5.50;99.90;;;;;;12517927;28;20103;-81
2022/02/18 05:57:38;;;;;;;29.33;9.05;;;5.50;99.90;;;;;;12519653;28;20068;-80
2022/02/18 06:03:40;;;;;;;23.75;8.38;;;5.50;99.90;;;;;;12524124;28;20107;-81
2022/02/18 06:09:43;;;;;;;26.83;6.78;;;5.50;99.90;;;;;;12526010;28;20091;-81
2022/02/18 06:15:45;;;;;;;20.15;5.50;;;5.60;99.90;;;;;;12520333;28;20314;-81
2022/02/18 06:21:47;;;;;;;21.27;4.80;;;5.60;99.90;;;;;;12514201;28;20049;-82
2022/02/18 06:27:49;;;;;;;26.02;4.53;;;5.50;99.90;;;;;;12532348;28;20354;-83
2022/02/18 06:33:51;;;;;;;24.95;4.75;;;5.50;99.90;;;;;;12515588;28;20115;-82
2022/02/18 06:39:53;;;;;;;21.33;4.60;;;5.60;99.90;;;;;;12513664;28;20054;-83
2022/02/18 06:45:55;;;;;;;18.67;4.32;;;5.60;99.90;;;;;;12516665;28;20048;-82
2022/02/18 06:51:57;;;;;;;23.60;3.90;;;5.60;99.90;;;;;;12517733;28;20036;-83
2022/02/18 06:58:01;;;;;;;20.45;4.18;;;5.70;99.90;;;;;;12513443;28;20132;-81
2022/02/18 07:04:03;;;;;;;20.33;4.67;;;5.70;99.90;;;;;;12516226;28;20580;-81
2022/02/18 07:10:07;;;;;;;20.25;4.72;;;5.70;99.90;;;;;;12514364;28;20059;-82
2022/02/18 07:16:09;;;;;;;16.00;4.83;;;5.80;99.90;;;;;;12508451;28;20496;-82
2022/02/18 07:22:11;;;;;;;21.10;4.85;;;5.80;99.90;;;;;;12523907;28;20135;-81
2022/02/18 07:28:17;;;;;;;17.40;4.20;;;5.80;99.90;;;;;;12518386;28;20049;-82
2022/02/18 07:34:19;;;;;;;16.35;3.90;;;5.90;99.90;;;;;;12518887;28;20048;-80
2022/02/18 07:40:21;;;;;;;21.02;4.93;;;5.90;99.90;;;;;;12534318;28;20700;-82
2022/02/18 07:46:23;;;;;;;19.55;4.90;;;6.00;99.90;;;;;;12538477;28;20045;-81
2022/02/18 07:52:25;;;;;;;19.48;4.68;;;6.10;99.90;;;;;;12518750;28;20536;-81
2022/02/18 07:58:27;;;;;;;18.75;4.38;;;6.20;99.90;;;;;;12533992;28;20069;-81
2022/02/18 08:04:29;;;;;;;18.67;4.55;;;6.30;99.90;;;;;;12525161;28;20037;-81
2022/02/18 08:10:37;;;;;;;14.63;3.80;;;6.50;99.90;;;;;;12535365;28;20049;-81
2022/02/18 08:16:42;;;;;;;16.60;3.42;;;6.50;99.90;;;;;;12510841;28;20114;-82
2022/02/18 08:22:44;;;;;;;19.13;3.03;;;6.70;99.90;;;;;;12498629;28;20639;-81
2022/02/18 08:28:46;;;;;;;20.13;4.32;;;6.70;99.90;;;;;;12505460;28;20550;-81
2022/02/18 08:34:48;;;;;;;18.38;3.30;;;6.70;99.90;;;;;;12532976;28;20560;-81
2022/02/18 08:40:50;;;;;;;13.68;3.15;;;6.60;99.90;;;;;;12531591;28;20048;-83
2022/02/18 08:46:52;;;;;;;12.32;3.25;;;6.50;99.90;;;;;;12510410;28;20091;-82
2022/02/18 08:52:54;;;;;;;16.98;3.25;;;6.40;99.90;;;;;;12521790;28;20527;-82
2022/02/18 08:58:57;;;;;;;18.42;3.55;;;6.40;99.90;;;;;;12513817;28;20053;-82
2022/02/18 09:04:59;;;;;;;15.98;2.97;;;6.40;99.90;;;;;;12537075;28;20128;-83
2022/02/18 09:11:01;;;;;;;16.30;2.70;;;6.40;99.90;;;;;;12540982;28;20060;-83
2022/02/18 09:17:03;;;;;;;15.40;3.17;;;6.30;99.90;;;;;;12535386;28;20567;-81
2022/02/18 09:23:06;;;;;;;18.02;2.88;;;6.30;99.90;;;;;;12539526;28;20089;-82
2022/02/18 09:29:08;;;;;;;15.85;3.05;;;6.20;99.90;;;;;;12520256;28;20159;-82
2022/02/18 09:35:10;;;;;;;18.58;3.05;;;6.20;99.90;;;;;;12521478;28;20068;-86
2022/02/18 09:41:13;;;;;;;18.80;2.67;;;6.10;99.90;;;;;;12534271;28;20550;-83
2022/02/18 09:47:15;;;;;;;18.02;3.88;;;6.10;99.90;;;;;;12524180;28;20049;-84
2022/02/18 09:53:19;;;;;;;25.83;4.00;;;6.20;99.90;;;;;;12520699;28;20102;-85
2022/02/18 09:59:21;;;;;;;21.33;3.10;;;6.10;99.90;;;;;;12527208;28;20055;-87
2022/02/18 10:05:23;;;;;;;23.60;5.05;;;6.20;99.90;;;;;;12518733;28;20839;-84
2022/02/18 10:11:28;;;;;;;24.85;3.00;;;6.30;99.90;;;;;;12520558;28;20040;-84
2022/02/18 10:17:41;;;;;;;25.43;3.43;;;6.40;99.90;;;;;;12519861;28;20045;-83
2022/02/18 10:23:44;;;;;;;19.25;3.00;;;6.40;99.90;;;;;;12513679;28;20132;-83
2022/02/18 10:29:58;;;;;;;19.73;2.90;;;6.50;99.90;;;;;;12532632;28;20257;-86
2022/02/18 10:36:04;;;;;;;14.65;2.80;;;6.70;99.90;;;;;;12528834;28;20048;-88
2022/02/18 10:42:07;;;;;;;18.88;3.20;;;6.80;99.90;;;;;;12513890;28;20049;-81
2022/02/18 10:48:15;;;;;;;17.55;2.38;;;6.90;99.90;;;;;;12534147;28;20056;-84
2022/02/18 10:54:17;;;;;;;15.13;2.60;;;7.10;99.90;;;;;;12532064;28;20049;-84
2022/02/18 11:00:24;;;;;;;22.85;3.42;;;7.20;99.90;;;;;;12520857;28;20389;-85
2022/02/18 11:06:28;;;;;;;15.00;2.72;;;7.30;99.90;;;;;;12531188;28;20082;-84
2022/02/18 11:12:32;;;;;;;14.48;2.38;;;7.50;99.90;;;;;;12522365;28;20937;-87
2022/02/18 11:18:34;;;;;;;14.87;2.53;;;7.60;99.90;;;;;;12527452;28;20135;-87
2022/02/18 11:24:38;;;;;;;15.90;3.05;;;7.80;99.90;;;;;;12518120;28;20037;-87
2022/02/18 11:30:47;;;;;;;9.77;2.00;;;7.90;99.90;;;;;;12521884;28;21005;-86
2022/02/18 11:37:21;;;;;;;12.73;2.40;;;8.10;99.90;;;;;;12518575;28;20076;-88
2022/02/18 11:43:30;;;;;;;9.43;2.30;;;8.10;99.90;;;;;;12514508;28;20056;-86
2022/02/18 11:49:31;;;;;;;13.68;2.13;;;8.20;99.90;;;;;;12520723;28;20094;-87
2022/02/18 11:55:38;;;;;;;10.57;2.05;;;8.30;99.90;;;;;;12515184;28;20037;-85
2022/02/18 12:01:58;;;;;;;9.40;1.88;;;8.50;99.90;;;;;;12497410;28;20180;-87
2022/02/18 12:08:00;;;;;;;5.90;1.63;;;8.60;99.90;;;;;;12511265;28;20059;-88
2022/02/18 12:14:08;;;;;;;6.22;1.85;;;8.70;99.90;;;;;;12490077;28;20507;-86
2022/02/18 12:20:25;;;;;;;6.30;1.30;;;8.90;99.90;;;;;;12516442;28;20055;-84
2022/02/18 12:26:27;;;;;;;7.40;1.35;;;9.10;99.90;;;;;;12524810;28;20078;-86
2022/02/18 12:32:29;;;;;;;5.85;1.02;;;9.20;99.90;;;;;;12511800;28;20049;-85
2022/02/18 12:38:31;;;;;;;5.15;1.20;;;9.30;99.90;;;;;;12509114;28;20052;-88
2022/02/18 12:44:48;;;;;;;5.93;1.10;;;9.60;99.90;;;;;;12507361;28;20429;-88
2022/02/18 12:50:50;;;;;;;4.03;1.00;;;9.70;99.90;;;;;;12504576;28;20132;-86
2022/02/18 12:56:55;;;;;;;3.05;0.90;;;9.90;99.90;;;;;;12522380;28;20053;-87
2022/02/18 13:02:59;;;;;;;3.65;0.85;;;10.00;99.90;;;;;;12513835;28;20056;-84
2022/02/18 13:09:06;;;;;;;3.05;0.93;;;10.10;99.90;;;;;;12530919;28;20091;-83
2022/02/18 13:15:10;;;;;;;2.20;0.70;;;10.20;99.90;;;;;;12500718;28;20037;-83
2022/02/18 13:21:14;;;;;;;4.13;1.03;;;10.20;99.90;;;;;;12512956;28;21037;-86
2022/02/18 13:27:16;;;;;;;1.75;0.52;;;10.30;99.90;;;;;;12533471;28;20110;-83
2022/02/18 13:33:42;;;;;;;3.22;0.73;;;10.40;99.90;;;;;;12510138;28;20068;-87
2022/02/18 13:39:46;;;;;;;1.67;0.90;;;10.50;99.90;;;;;;12501071;28;20076;-90
2022/02/18 13:45:50;;;;;;;1.50;0.50;;;10.50;99.90;;;;;;12510192;28;20520;-88
2022/02/18 13:51:57;;;;;;;3.50;0.68;;;10.70;99.90;;;;;;12499235;28;20752;-85
2022/02/18 13:57:59;;;;;;;1.48;0.40;;;10.70;99.90;;;;;;12518306;28;20044;-86
2022/02/18 14:04:01;;;;;;;1.38;0.50;;;10.80;99.90;;;;;;12519488;28;20051;-90
2022/02/18 14:10:16;;;;;;;3.17;0.60;;;10.80;99.90;;;;;;12539944;28;20053;-86
2022/02/18 14:16:19;;;;;;;3.20;0.45;;;10.90;99.90;;;;;;12515749;28;20045;-85
2022/02/18 14:22:43;;;;;;;1.42;0.50;;;10.90;99.90;;;;;;12517113;28;20041;-84
2022/02/18 14:28:49;;;;;;;;;;;11.00;99.90;;;;;;12516089;28;20071;-87
2022/02/18 14:34:58;;;;;;;2.83;0.50;;;11.00;99.90;;;;;;12530000;28;19924;-84
2022/02/18 14:41:00;;;;;;;0.40;0.30;;;11.10;99.90;;;;;;12530352;28;20049;-87
2022/02/18 14:47:02;;;;;;;1.60;0.52;;;11.20;99.90;;;;;;12520156;28;20147;-85
2022/02/18 14:53:06;;;;;;;1.75;0.50;;;11.30;99.90;;;;;;12544287;28;20131;-87
2022/02/18 14:59:08;;;;;;;0.68;0.35;;;11.30;99.90;;;;;;12525293;28;20080;-86
2022/02/18 15:05:11;;;;;;;1.17;0.57;;;11.10;99.90;;;;;;12523810;28;20045;-86
2022/02/18 15:11:13;;;;;;;1.23;0.43;;;11.00;99.90;;;;;;12521641;28;20049;-86
2022/02/18 15:17:17;;;;;;;0.82;0.45;;;10.80;99.90;;;;;;12533862;28;20943;-87
2022/02/18 15:23:21;;;;;;;;;;;10.80;99.90;;;;;;12511280;28;20076;-85
2022/02/18 15:36:04;;;;;;;1.85;0.50;;;10.50;99.90;;;;;;12564520;28;20056;-88
2022/02/18 15:42:11;;;;;;;2.38;0.40;;;10.00;99.90;;;;;;12571363;28;20510;-89
2022/02/18 15:48:13;;;;;;;0.32;0.20;;;9.60;99.90;;;;;;12552343;28;20056;-86
2022/02/18 15:54:15;;;;;;;1.63;0.30;;;9.10;99.90;;;;;;12513358;28;20062;-83
2022/02/18 16:00:19;;;;;;;1.42;0.25;;;9.30;99.90;;;;;;12522199;28;20052;-83
2022/02/18 16:06:21;;;;;;;1.23;0.23;;;9.10;99.90;;;;;;12521262;28;20482;-87
2022/02/18 16:12:28;;;;;;;2.90;0.40;;;9.00;99.90;;;;;;12516655;28;20604;-82
2022/02/18 16:18:32;;;;;;;1.00;0.30;;;9.10;99.90;;;;;;12504140;28;20107;-83
2022/02/18 16:24:34;;;;;;;1.98;0.50;;;9.20;99.90;;;;;;12508892;28;20516;-83
2022/02/18 16:30:36;;;;;;;2.08;0.50;;;9.40;99.90;;;;;;12503408;28;20471;-86
2022/02/18 16:36:39;;;;;;;2.10;0.60;;;9.30;99.90;;;;;;12512671;28;20168;-82
2022/02/18 16:42:41;;;;;;;5.78;0.75;;;9.60;99.90;;;;;;12511304;28;20160;-82
2022/02/18 16:48:44;;;;;;;5.13;0.77;;;9.60;99.90;;;;;;12502144;28;20060;-83
2022/02/18 16:54:46;;;;;;;4.18;0.82;;;9.40;99.90;;;;;;12510558;28;20087;-85
2022/02/18 17:00:48;;;;;;;6.60;1.52;;;9.40;99.90;;;;;;12516291;28;20404;-84
2022/02/18 17:06:50;;;;;;;7.28;1.17;;;9.30;99.90;;;;;;12506404;28;20080;-86
2022/02/18 17:12:52;;;;;;;3.25;0.80;;;9.40;99.90;;;;;;12508688;28;20076;-85
2022/02/18 17:18:54;;;;;;;8.43;1.23;;;9.50;99.90;;;;;;12500833;28;20425;-84
2022/02/18 17:24:56;;;;;;;6.63;1.20;;;9.40;99.90;;;;;;12535482;28;20768;-82
2022/02/18 17:30:59;;;;;;;8.35;1.42;;;9.30;99.90;;;;;;12521374;28;20069;-85
2022/02/18 17:37:02;;;;;;;11.25;1.60;;;9.40;99.90;;;;;;12508482;28;20320;-84
2022/02/18 17:43:07;;;;;;;6.13;1.17;;;9.30;99.90;;;;;;12522316;28;20090;-84
2022/02/18 17:49:12;;;;;;;10.38;1.95;;;9.50;99.90;;;;;;12509692;28;20554;-83
2022/02/18 17:55:14;;;;;;;10.38;1.25;;;9.40;99.90;;;;;;12526588;28;20045;-81
2022/02/18 18:01:17;;;;;;;11.82;1.85;;;9.40;99.90;;;;;;12518892;28;20115;-82
2022/02/18 18:07:20;;;;;;;10.60;1.75;;;9.30;99.90;;;;;;12513098;28;20505;-84
2022/02/18 18:13:22;;;;;;;13.20;1.70;;;9.50;99.90;;;;;;12530036;28;20539;-84
2022/02/18 18:19:24;;;;;;;7.10;1.38;;;9.30;99.90;;;;;;12548175;28;20641;-85
2022/02/18 18:25:26;;;;;;;14.75;1.98;;;9.30;99.90;;;;;;12554848;28;20033;-83
2022/02/18 18:31:29;;;;;;;8.98;1.70;;;9.00;99.90;;;;;;12533133;28;20052;-85
2022/02/18 18:37:33;;;;;;;11.10;1.92;;;9.00;99.90;;;;;;12538535;28;20419;-86
2022/02/18 18:43:35;;;;;;;12.57;2.30;;;7.80;99.90;;;;;;12550319;28;20060;-85
2022/02/18 18:49:37;;;;;;;15.38;2.00;;;7.30;99.90;;;;;;12541330;28;20103;-84
2022/02/18 18:55:40;;;;;;;9.90;1.48;;;7.50;99.90;;;;;;12507664;28;20201;-84
2022/02/18 19:01:45;;;;;;;4.78;1.40;;;7.70;99.90;;;;;;12529528;28;20065;-83
2022/02/18 19:07:48;;;;;;;7.95;1.10;;;7.70;99.90;;;;;;12523190;28;20057;-85
2022/02/18 19:13:51;;;;;;;4.22;1.17;;;7.60;99.90;;;;;;12500084;28;20051;-82
2022/02/18 19:19:56;;;;;;;9.68;1.38;;;7.50;99.90;;;;;;12507973;28;20056;-83
2022/02/18 19:25:57;;;;;;;4.03;1.13;;;7.30;99.90;;;;;;12516385;28;20048;-86
2022/02/18 19:32:00;;;;;;;8.90;1.05;;;7.30;99.90;;;;;;12517982;28;20120;-84
2022/02/18 19:38:07;;;;;;;7.45;0.95;;;7.30;99.90;;;;;;12530903;28;20056;-86
2022/02/18 19:44:10;;;;;;;5.97;0.88;;;7.40;99.90;;;;;;12526883;28;20167;-84
2022/02/18 19:50:12;;;;;;;6.45;1.15;;;7.30;99.90;;;;;;12515102;28;20408;-84
2022/02/18 19:56:17;;;;;;;5.30;1.27;;;6.30;99.90;;;;;;12519915;28;20091;-83
2022/02/18 20:02:19;;;;;;;6.38;1.40;;;5.20;99.90;;;;;;12496170;28;20411;-85
2022/02/18 20:08:21;;;;;;;4.22;1.05;;;5.30;99.90;;;;;;12470363;28;20830;-85
2022/02/18 20:14:23;;;;;;;9.27;1.10;;;5.30;99.90;;;;;;12495453;28;20045;-84
2022/02/18 20:20:26;;;;;;;9.32;1.65;;;5.50;99.90;;;;;;12493910;28;20160;-83
2022/02/18 20:26:28;;;;;;;6.03;1.00;;;6.00;99.90;;;;;;12513729;28;20083;-87
2022/02/18 20:32:31;;;;;;;4.93;1.05;;;6.20;99.90;;;;;;12508873;28;20050;-84
2022/02/18 20:38:37;;;;;;;8.65;1.25;;;6.50;99.90;;;;;;12522708;28;20475;-85
2022/02/18 20:44:42;;;;;;;6.82;1.20;;;6.40;99.90;;;;;;12522546;28;20045;-84
2022/02/18 20:50:44;;;;;;;7.18;1.13;;;6.00;99.90;;;;;;12525393;28;20060;-84
2022/02/18 20:56:47;;;;;;;5.68;1.10;;;6.40;99.90;;;;;;12517735;28;20049;-84
2022/02/18 21:02:50;;;;;;;10.63;1.08;;;6.40;99.90;;;;;;12527293;28;20052;-82
2022/02/18 21:08:52;;;;;;;4.60;0.95;;;6.60;99.90;;;;;;12526215;28;20699;-84
2022/02/18 21:14:54;;;;;;;6.50;1.30;;;6.70;99.90;;;;;;12520524;28;20091;-83
2022/02/18 21:21:01;;;;;;;8.52;1.05;;;6.80;99.90;;;;;;12523409;28;20053;-83
2022/02/18 21:27:04;;;;;;;11.52;1.33;;;6.70;99.90;;;;;;12529099;28;20053;-84
2022/02/18 21:33:07;;;;;;;10.52;1.45;;;6.70;99.90;;;;;;12523263;28;20045;-84
2022/02/18 21:39:13;;;;;;;5.57;1.10;;;6.70;99.90;;;;;;12541745;28;20063;-84
2022/02/18 21:45:15;;;;;;;9.15;1.42;;;6.70;99.90;;;;;;12511553;28;20072;-82
2022/02/18 21:51:17;;;;;;;5.78;1.20;;;6.70;99.90;;;;;;12537632;28;20070;-81
2022/02/18 21:57:19;;;;;;;5.63;0.85;;;6.70;99.90;;;;;;12517329;28;20435;-83
2022/02/18 22:03:21;;;;;;;10.73;1.67;;;6.70;99.90;;;;;;12527988;28;20088;-85
2022/02/18 22:09:23;;;;;;;5.00;1.10;;;6.80;99.90;;;;;;12513542;28;20049;-82
2022/02/18 22:15:25;;;;;;;7.05;1.13;;;6.80;99.90;;;;;;12542603;28;20075;-83
2022/02/18 22:21:27;;;;;;;8.27;1.35;;;6.70;99.90;;;;;;12517089;28;20112;-86
2022/02/18 22:27:29;;;;;;;6.20;1.17;;;6.80;99.90;;;;;;12527156;28;20052;-83
2022/02/18 22:33:31;;;;;;;10.88;1.52;;;6.70;99.90;;;;;;12539809;28;20092;-82
2022/02/18 22:39:33;;;;;;;20.50;2.45;;;6.80;99.90;;;;;;12508066;28;20483;-82
2022/02/18 22:45:35;;;;;;;11.07;1.73;;;6.80;99.90;;;;;;12538131;28;20147;-85
2022/02/18 22:51:37;;;;;;;10.00;1.35;;;6.80;99.90;;;;;;12523953;28;20761;-83
2022/02/18 22:57:42;;;;;;;9.82;1.58;;;6.90;99.90;;;;;;12545703;28;20979;-84
2022/02/18 23:03:45;;;;;;;6.05;1.35;;;6.80;99.90;;;;;;12518089;28;20102;-83
2022/02/18 23:09:47;;;;;;;14.23;1.77;;;6.90;99.90;;;;;;12540058;28;20136;-82
2022/02/18 23:15:49;;;;;;;8.95;2.03;;;6.80;99.90;;;;;;12540179;28;20033;-82
2022/02/18 23:21:51;;;;;;;9.93;1.70;;;6.70;99.90;;;;;;12511017;28;20140;-83
2022/02/18 23:27:54;;;;;;;10.00;1.45;;;6.60;99.90;;;;;;12513085;28;20048;-83
2022/02/18 23:33:57;;;;;;;8.23;1.30;;;6.60;99.90;;;;;;12509961;28;20614;-84
2022/02/18 23:40:00;;;;;;;;;;;6.60;99.90;;;;;;12540268;28;20074;-83
2022/02/18 23:46:03;;;;;;;9.63;1.83;;;6.60;99.90;;;;;;12510694;28;20084;-82
2022/02/18 23:52:06;;;;;;;15.43;2.17;;;6.50;99.90;;;;;;12526064;28;20053;-84
2022/02/18 23:58:08;;;;;;;11.75;1.65;;;6.40;99.90;;;;;;12530375;28;20102;-82
